sensor_id;sensor_type;location;lat;lon;timestamp;pressure;altitude;pressure_sealevel;temperature;humidity
57024;BME280;42916;54.346;18.562;2023-03-03T00:03:16;100749.06;;;-1.54;100.00
57024;BME280;42916;54.346;18.562;2023-03-03T00:05:54;100747.55;;;-1.53;100.00
57024;BME280;42916;54.346;18.562;2023-03-03T00:08:45;100742.16;;;-1.52;100.00
57024;BME280;42916;54.346;18.562;2023-03-03T00:11:40;100730.95;;;-1.52;100.00
57024;BME280;42916;54.346;18.562;2023-03-03T00:17:46;100722.95;;;-1.52;100.00
57024;BME280;42916;54.346;18.562;2023-03-03T00:20:54;100718.44;;;-1.55;100.00
57024;BME280;42916;54.346;18.562;2023-03-03T00:33:35;100695.84;;;-1.58;100.00
57024;BME280;42916;54.346;18.562;2023-03-03T00:36:57;100686.04;;;-1.58;100.00
57024;BME280;42916;54.346;18.562;2023-03-03T00:39:43;100679.40;;;-1.59;100.00
57024;BME280;42916;54.346;18.562;2023-03-03T00:42:39;100680.98;;;-1.60;100.00
57024;BME280;42916;54.346;18.562;2023-03-03T00:49:04;100683.54;;;-1.61;100.00
57024;BME280;42916;54.346;18.562;2023-03-03T00:51:56;100680.56;;;-1.61;100.00
57024;BME280;42916;54.346;18.562;2023-03-03T00:58:02;100682.66;;;-1.64;100.00
57024;BME280;42916;54.346;18.562;2023-03-03T01:04:12;100687.37;;;-1.62;100.00
57024;BME280;42916;54.346;18.562;2023-03-03T01:06:50;100691.17;;;-1.61;100.00
57024;BME280;42916;54.346;18.562;2023-03-03T01:09:46;100685.67;;;-1.59;100.00
57024;BME280;42916;54.346;18.562;2023-03-03T01:12:54;100672.87;;;-1.59;100.00
57024;BME280;42916;54.346;18.562;2023-03-03T01:18:56;100663.70;;;-1.60;100.00
57024;BME280;42916;54.346;18.562;2023-03-03T01:21:46;100660.29;;;-1.60;100.00
57024;BME280;42916;54.346;18.562;2023-03-03T01:24:13;100662.76;;;-1.58;100.00
57024;BME280;42916;54.346;18.562;2023-03-03T01:27:07;100662.96;;;-1.56;100.00
57024;BME280;42916;54.346;18.562;2023-03-03T01:30:05;100655.05;;;-1.57;100.00
57024;BME280;42916;54.346;18.562;2023-03-03T01:32:33;100646.02;;;-1.58;100.00
57024;BME280;42916;54.346;18.562;2023-03-03T01:35:14;100654.19;;;-1.56;100.00
57024;BME280;42916;54.346;18.562;2023-03-03T01:37:50;100652.25;;;-1.56;100.00
57024;BME280;42916;54.346;18.562;2023-03-03T01:40:23;100648.94;;;-1.55;100.00
57024;BME280;42916;54.346;18.562;2023-03-03T01:43:07;100647.56;;;-1.54;100.00
57024;BME280;42916;54.346;18.562;2023-03-03T01:48:45;100648.11;;;-1.53;100.00
57024;BME280;42916;54.346;18.562;2023-03-03T02:00:22;100639.45;;;-1.34;100.00
57024;BME280;42916;54.346;18.562;2023-03-03T02:02:50;100642.91;;;-1.29;100.00
57024;BME280;42916;54.346;18.562;2023-03-03T02:12:10;100630.04;;;-1.20;100.00
57024;BME280;42916;54.346;18.562;2023-03-03T02:18:15;100635.73;;;-1.10;100.00
57024;BME280;42916;54.346;18.562;2023-03-03T02:26:57;100615.98;;;-0.99;100.00
57024;BME280;42916;54.346;18.562;2023-03-03T02:29:46;100617.95;;;-0.96;100.00
57024;BME280;42916;54.346;18.562;2023-03-03T02:35:48;100613.97;;;-0.87;100.00
57024;BME280;42916;54.346;18.562;2023-03-03T02:38:38;100611.48;;;-0.84;100.00
57024;BME280;42916;54.346;18.562;2023-03-03T02:44:35;100616.90;;;-0.80;100.00
57024;BME280;42916;54.346;18.562;2023-03-03T02:48:11;100619.62;;;-0.76;100.00
57024;BME280;42916;54.346;18.562;2023-03-03T02:50:41;100618.70;;;-0.72;100.00
57024;BME280;42916;54.346;18.562;2023-03-03T02:57:00;100621.73;;;-0.68;100.00
57024;BME280;42916;54.346;18.562;2023-03-03T02:59:42;100625.61;;;-0.66;100.00
57024;BME280;42916;54.346;18.562;2023-03-03T03:02:45;100615.01;;;-0.64;100.00
57024;BME280;42916;54.346;18.562;2023-03-03T03:09:09;100621.39;;;-0.57;100.00
57024;BME280;42916;54.346;18.562;2023-03-03T03:11:41;100620.39;;;-0.55;100.00
57024;BME280;42916;54.346;18.562;2023-03-03T03:14:43;100616.35;;;-0.51;100.00
57024;BME280;42916;54.346;18.562;2023-03-03T03:19:57;100614.13;;;-0.45;100.00
57024;BME280;42916;54.346;18.562;2023-03-03T03:22:33;100612.73;;;-0.44;100.00
57024;BME280;42916;54.346;18.562;2023-03-03T03:25:45;100615.01;;;-0.42;100.00
57024;BME280;42916;54.346;18.562;2023-03-03T03:29:09;100621.63;;;-0.39;100.00
57024;BME280;42916;54.346;18.562;2023-03-03T03:32:20;100615.41;;;-0.36;100.00
57024;BME280;42916;54.346;18.562;2023-03-03T03:35:10;100618.19;;;-0.34;100.00
57024;BME280;42916;54.346;18.562;2023-03-03T03:38:00;100613.70;;;-0.31;100.00
57024;BME280;42916;54.346;18.562;2023-03-03T03:40:51;100614.36;;;-0.27;100.00
57024;BME280;42916;54.346;18.562;2023-03-03T03:44:10;100601.83;;;-0.24;100.00
57024;BME280;42916;54.346;18.562;2023-03-03T03:47:37;100602.67;;;-0.22;100.00
57024;BME280;42916;54.346;18.562;2023-03-03T03:50:14;100604.34;;;-0.21;100.00
57024;BME280;42916;54.346;18.562;2023-03-03T03:56:02;100608.39;;;-0.17;100.00
57024;BME280;42916;54.346;18.562;2023-03-03T03:58:42;100601.05;;;-0.15;100.00
57024;BME280;42916;54.346;18.562;2023-03-03T04:01:29;100600.58;;;-0.13;100.00
57024;BME280;42916;54.346;18.562;2023-03-03T04:04:25;100604.45;;;-0.09;100.00
57024;BME280;42916;54.346;18.562;2023-03-03T04:07:05;100605.87;;;-0.06;100.00
57024;BME280;42916;54.346;18.562;2023-03-03T04:09:52;100600.77;;;-0.01;100.00
57024;BME280;42916;54.346;18.562;2023-03-03T04:12:41;100595.30;;;0.03;100.00
57024;BME280;42916;54.346;18.562;2023-03-03T04:15:30;100586.29;;;0.07;100.00
57024;BME280;42916;54.346;18.562;2023-03-03T04:18:09;100590.33;;;0.11;100.00
57024;BME280;42916;54.346;18.562;2023-03-03T04:24:39;100580.84;;;0.15;100.00
57024;BME280;42916;54.346;18.562;2023-03-03T04:27:18;100593.70;;;0.18;100.00
57024;BME280;42916;54.346;18.562;2023-03-03T04:29:53;100594.10;;;0.23;100.00
57024;BME280;42916;54.346;18.562;2023-03-03T04:32:23;100596.27;;;0.27;100.00
57024;BME280;42916;54.346;18.562;2023-03-03T04:41:21;100565.25;;;0.39;100.00
57024;BME280;42916;54.346;18.562;2023-03-03T04:44:14;100560.53;;;0.42;100.00
57024;BME280;42916;54.346;18.562;2023-03-03T04:50:26;100539.12;;;0.48;100.00
57024;BME280;42916;54.346;18.562;2023-03-03T04:52:53;100543.55;;;0.51;100.00
57024;BME280;42916;54.346;18.562;2023-03-03T04:55:34;100542.27;;;0.54;100.00
57024;BME280;42916;54.346;18.562;2023-03-03T04:58:05;100547.14;;;0.57;100.00
57024;BME280;42916;54.346;18.562;2023-03-03T05:00:42;100540.71;;;0.60;100.00
57024;BME280;42916;54.346;18.562;2023-03-03T05:03:20;100531.41;;;0.63;100.00
57024;BME280;42916;54.346;18.562;2023-03-03T05:06:27;100524.86;;;0.64;100.00
57024;BME280;42916;54.346;18.562;2023-03-03T05:12:58;100530.70;;;0.69;100.00
57024;BME280;42916;54.346;18.562;2023-03-03T05:18:35;100546.71;;;0.75;100.00
57024;BME280;42916;54.346;18.562;2023-03-03T05:21:13;100539.16;;;0.77;100.00
57024;BME280;42916;54.346;18.562;2023-03-03T05:23:40;100548.27;;;0.78;100.00
57024;BME280;42916;54.346;18.562;2023-03-03T05:26:09;100546.14;;;0.79;100.00
57024;BME280;42916;54.346;18.562;2023-03-03T05:28:47;100542.30;;;0.81;100.00
57024;BME280;42916;54.346;18.562;2023-03-03T05:31:14;100553.08;;;0.82;100.00
57024;BME280;42916;54.346;18.562;2023-03-03T05:33:55;100552.77;;;0.83;100.00
57024;BME280;42916;54.346;18.562;2023-03-03T05:36:26;100548.10;;;0.84;100.00
57024;BME280;42916;54.346;18.562;2023-03-03T05:43:10;100553.04;;;0.81;100.00
57024;BME280;42916;54.346;18.562;2023-03-03T05:45:36;100560.23;;;0.82;100.00
57024;BME280;42916;54.346;18.562;2023-03-03T05:48:23;100556.71;;;0.84;100.00
57024;BME280;42916;54.346;18.562;2023-03-03T05:50:50;100561.45;;;0.88;100.00
57024;BME280;42916;54.346;18.562;2023-03-03T05:53:21;100552.06;;;0.91;100.00
57024;BME280;42916;54.346;18.562;2023-03-03T05:55:48;100558.02;;;0.94;100.00
57024;BME280;42916;54.346;18.562;2023-03-03T05:58:24;100563.41;;;0.97;100.00
57024;BME280;42916;54.346;18.562;2023-03-03T06:01:00;100566.98;;;0.98;100.00
57024;BME280;42916;54.346;18.562;2023-03-03T06:03:40;100556.15;;;1.00;100.00
57024;BME280;42916;54.346;18.562;2023-03-03T06:06:07;100560.55;;;1.02;100.00
57024;BME280;42916;54.346;18.562;2023-03-03T06:08:35;100568.66;;;1.05;100.00
57024;BME280;42916;54.346;18.562;2023-03-03T06:11:01;100573.72;;;1.07;100.00
57024;BME280;42916;54.346;18.562;2023-03-03T06:13:32;100577.15;;;1.11;100.00
57024;BME280;42916;54.346;18.562;2023-03-03T06:15:59;100570.75;;;1.16;100.00
57024;BME280;42916;54.346;18.562;2023-03-03T06:18:35;100576.48;;;1.20;100.00
57024;BME280;42916;54.346;18.562;2023-03-03T06:21:13;100571.14;;;1.24;100.00
57024;BME280;42916;54.346;18.562;2023-03-03T06:23:43;100574.77;;;1.27;100.00
57024;BME280;42916;54.346;18.562;2023-03-03T06:26:13;100579.23;;;1.29;100.00
57024;BME280;42916;54.346;18.562;2023-03-03T06:28:40;100581.78;;;1.32;100.00
57024;BME280;42916;54.346;18.562;2023-03-03T06:31:27;100587.72;;;1.36;100.00
57024;BME280;42916;54.346;18.562;2023-03-03T06:33:54;100582.98;;;1.41;100.00
57024;BME280;42916;54.346;18.562;2023-03-03T06:36:22;100586.93;;;1.48;100.00
57024;BME280;42916;54.346;18.562;2023-03-03T06:38:58;100587.48;;;1.54;100.00
57024;BME280;42916;54.346;18.562;2023-03-03T06:41:26;100587.17;;;1.59;100.00
57024;BME280;42916;54.346;18.562;2023-03-03T06:44:01;100584.82;;;1.64;100.00
57024;BME280;42916;54.346;18.562;2023-03-03T06:46:28;100579.71;;;1.69;100.00
57024;BME280;42916;54.346;18.562;2023-03-03T06:51:44;100572.79;;;1.75;100.00
57024;BME280;42916;54.346;18.562;2023-03-03T06:57:32;100576.96;;;1.89;100.00
57024;BME280;42916;54.346;18.562;2023-03-03T07:00:22;100581.10;;;2.07;100.00
57024;BME280;42916;54.346;18.562;2023-03-03T07:02:58;100580.55;;;2.23;100.00
57024;BME280;42916;54.346;18.562;2023-03-03T07:05:26;100588.36;;;2.24;100.00
57024;BME280;42916;54.346;18.562;2023-03-03T07:07:55;100589.81;;;2.24;100.00
57024;BME280;42916;54.346;18.562;2023-03-03T07:10:25;100595.11;;;2.25;100.00
57024;BME280;42916;54.346;18.562;2023-03-03T07:16:33;100596.70;;;2.30;100.00
57024;BME280;42916;54.346;18.562;2023-03-03T07:19:00;100596.55;;;2.31;100.00
57024;BME280;42916;54.346;18.562;2023-03-03T07:21:35;100596.38;;;2.31;100.00
57024;BME280;42916;54.346;18.562;2023-03-03T07:27:52;100600.16;;;2.28;100.00
57024;BME280;42916;54.346;18.562;2023-03-03T07:30:27;100599.54;;;2.27;100.00
57024;BME280;42916;54.346;18.562;2023-03-03T07:36:03;100600.66;;;2.28;100.00
57024;BME280;42916;54.346;18.562;2023-03-03T07:41:51;100596.30;;;2.32;100.00
57024;BME280;42916;54.346;18.562;2023-03-03T07:47:49;100593.55;;;2.39;100.00
57024;BME280;42916;54.346;18.562;2023-03-03T07:50:57;100592.42;;;2.45;100.00
57024;BME280;42916;54.346;18.562;2023-03-03T07:53:34;100596.28;;;2.53;100.00
57024;BME280;42916;54.346;18.562;2023-03-03T07:57:10;100597.02;;;2.59;100.00
57024;BME280;42916;54.346;18.562;2023-03-03T08:03:17;100599.30;;;2.61;100.00
57024;BME280;42916;54.346;18.562;2023-03-03T08:06:10;100601.95;;;2.61;99.94
57024;BME280;42916;54.346;18.562;2023-03-03T08:15:40;100591.58;;;2.70;99.98
57024;BME280;42916;54.346;18.562;2023-03-03T08:21:14;100586.47;;;2.91;100.00
57024;BME280;42916;54.346;18.562;2023-03-03T08:23:41;100579.94;;;3.00;99.94
57024;BME280;42916;54.346;18.562;2023-03-03T08:26:08;100587.52;;;3.08;99.30
57024;BME280;42916;54.346;18.562;2023-03-03T08:28:54;100588.63;;;3.09;98.17
57024;BME280;42916;54.346;18.562;2023-03-03T08:31:37;100585.30;;;3.09;98.00
57024;BME280;42916;54.346;18.562;2023-03-03T08:34:07;100580.84;;;3.10;98.39
57024;BME280;42916;54.346;18.562;2023-03-03T08:36:47;100577.39;;;3.17;98.19
57024;BME280;42916;54.346;18.562;2023-03-03T08:39:18;100580.40;;;3.27;98.27
57024;BME280;42916;54.346;18.562;2023-03-03T08:41:48;100579.45;;;3.34;97.53
57024;BME280;42916;54.346;18.562;2023-03-03T08:44:26;100582.81;;;3.34;96.31
57024;BME280;42916;54.346;18.562;2023-03-03T08:47:01;100589.31;;;3.33;95.10
57024;BME280;42916;54.346;18.562;2023-03-03T08:49:41;100588.85;;;3.32;95.40
57024;BME280;42916;54.346;18.562;2023-03-03T08:52:08;100586.90;;;3.34;95.85
57024;BME280;42916;54.346;18.562;2023-03-03T08:54:38;100587.31;;;3.44;96.29
57024;BME280;42916;54.346;18.562;2023-03-03T08:57:05;100586.94;;;3.52;96.49
57024;BME280;42916;54.346;18.562;2023-03-03T08:59:32;100590.48;;;3.58;95.98
57024;BME280;42916;54.346;18.562;2023-03-03T09:02:25;100591.15;;;3.64;96.13
57024;BME280;42916;54.346;18.562;2023-03-03T09:05:01;100594.02;;;3.70;96.35
57024;BME280;42916;54.346;18.562;2023-03-03T09:07:28;100592.95;;;3.73;95.41
57024;BME280;42916;54.346;18.562;2023-03-03T09:09:55;100593.73;;;3.72;94.34
57024;BME280;42916;54.346;18.562;2023-03-03T09:12:39;100594.31;;;3.74;94.07
57024;BME280;42916;54.346;18.562;2023-03-03T09:15:41;100592.36;;;3.70;93.06
57024;BME280;42916;54.346;18.562;2023-03-03T09:18:31;100581.13;;;3.69;93.36
57024;BME280;42916;54.346;18.562;2023-03-03T09:23:48;100590.54;;;3.73;92.38
57024;BME280;42916;54.346;18.562;2023-03-03T09:26:27;100582.24;;;3.64;91.62
57024;BME280;42916;54.346;18.562;2023-03-03T09:32:21;100585.95;;;3.50;92.31
57024;BME280;42916;54.346;18.562;2023-03-03T09:38:34;100586.55;;;3.37;91.86
57024;BME280;42916;54.346;18.562;2023-03-03T09:54:23;100578.35;;;3.37;92.08
57024;BME280;42916;54.346;18.562;2023-03-03T10:12:27;100560.80;;;3.54;90.08
57024;BME280;42916;54.346;18.562;2023-03-03T11:06:39;100565.43;;;4.31;84.92
57024;BME280;42916;54.346;18.562;2023-03-03T11:16:03;100561.56;;;4.35;83.39
57024;BME280;42916;54.346;18.562;2023-03-03T11:19:00;100554.61;;;4.35;82.92
57024;BME280;42916;54.346;18.562;2023-03-03T11:25:46;100541.83;;;4.68;83.63
57024;BME280;42916;54.346;18.562;2023-03-03T11:38:41;100531.30;;;5.11;81.70
57024;BME280;42916;54.346;18.562;2023-03-03T11:41:38;100532.95;;;5.22;81.16
57024;BME280;42916;54.346;18.562;2023-03-03T11:44:20;100521.41;;;5.36;81.14
57024;BME280;42916;54.346;18.562;2023-03-03T11:50:51;100502.23;;;5.68;80.43
57024;BME280;42916;54.346;18.562;2023-03-03T11:53:58;100505.54;;;5.81;79.30
57024;BME280;42916;54.346;18.562;2023-03-03T12:06:20;100473.85;;;6.25;76.73
57024;BME280;42916;54.346;18.562;2023-03-03T12:19:21;100462.91;;;6.95;71.96
57024;BME280;42916;54.346;18.562;2023-03-03T12:23:16;100464.69;;;6.93;69.68
57024;BME280;42916;54.346;18.562;2023-03-03T12:28:28;100439.96;;;7.27;71.16
57024;BME280;42916;54.346;18.562;2023-03-03T12:34:01;100432.23;;;7.54;68.95
57024;BME280;42916;54.346;18.562;2023-03-03T12:36:55;100431.86;;;7.80;70.85
57024;BME280;42916;54.346;18.562;2023-03-03T12:39:43;100438.98;;;8.14;70.18
57024;BME280;42916;54.346;18.562;2023-03-03T12:43:01;100441.54;;;8.44;69.08
57024;BME280;42916;54.346;18.562;2023-03-03T12:49:00;100437.60;;;8.50;63.23
57024;BME280;42916;54.346;18.562;2023-03-03T13:04:28;100419.20;;;8.99;61.00
57024;BME280;42916;54.346;18.562;2023-03-03T13:07:05;100413.56;;;9.05;57.60
57024;BME280;42916;54.346;18.562;2023-03-03T13:21:18;100395.83;;;9.25;57.10
57024;BME280;42916;54.346;18.562;2023-03-03T13:27:16;100385.50;;;9.42;56.00
57024;BME280;42916;54.346;18.562;2023-03-03T13:33:14;100390.02;;;9.35;54.84
57024;BME280;42916;54.346;18.562;2023-03-03T13:43:27;100384.73;;;9.27;54.89
57024;BME280;42916;54.346;18.562;2023-03-03T13:46:57;100381.74;;;9.24;54.31
57024;BME280;42916;54.346;18.562;2023-03-03T14:15:49;100359.89;;;9.89;50.55
57024;BME280;42916;54.346;18.562;2023-03-03T14:18:54;100347.66;;;9.78;50.68
57024;BME280;42916;54.346;18.562;2023-03-03T15:19:49;100278.66;;;5.53;61.72
57024;BME280;42916;54.346;18.562;2023-03-03T15:30:13;100267.20;;;5.25;62.69
57024;BME280;42916;54.346;18.562;2023-03-03T17:25:35;100150.05;;;3.11;77.00
57024;BME280;42916;54.346;18.562;2023-03-03T17:48:43;100132.36;;;2.85;83.16
57024;BME280;42916;54.346;18.562;2023-03-03T17:54:29;100127.41;;;2.78;83.28
57024;BME280;42916;54.346;18.562;2023-03-03T17:57:21;100128.58;;;2.77;83.79
57024;BME280;42916;54.346;18.562;2023-03-03T18:00:18;100128.55;;;2.75;84.19
57024;BME280;42916;54.346;18.562;2023-03-03T18:02:57;100123.34;;;2.72;84.82
57024;BME280;42916;54.346;18.562;2023-03-03T18:05:54;100119.33;;;2.70;85.39
57024;BME280;42916;54.346;18.562;2023-03-03T18:08:57;100116.69;;;2.69;84.96
57024;BME280;42916;54.346;18.562;2023-03-03T18:20:06;100104.47;;;2.62;86.32
57024;BME280;42916;54.346;18.562;2023-03-03T18:28:34;100082.34;;;2.58;87.32
57024;BME280;42916;54.346;18.562;2023-03-03T18:31:26;100089.41;;;2.56;87.27
57024;BME280;42916;54.346;18.562;2023-03-03T18:34:08;100080.90;;;2.52;87.44
57024;BME280;42916;54.346;18.562;2023-03-03T18:36:58;100071.78;;;2.50;87.71
57024;BME280;42916;54.346;18.562;2023-03-03T18:54:34;100056.49;;;2.35;88.68
57024;BME280;42916;54.346;18.562;2023-03-03T18:57:14;100054.64;;;2.34;88.77
57024;BME280;42916;54.346;18.562;2023-03-03T19:02:58;100044.45;;;2.27;88.36
57024;BME280;42916;54.346;18.562;2023-03-03T19:05:35;100039.05;;;2.23;88.30
57024;BME280;42916;54.346;18.562;2023-03-03T19:39:19;100027.33;;;1.80;90.54
57024;BME280;42916;54.346;18.562;2023-03-03T19:45:26;100015.89;;;1.79;90.92
57024;BME280;42916;54.346;18.562;2023-03-03T19:52:00;100014.98;;;1.78;91.19
57024;BME280;42916;54.346;18.562;2023-03-03T20:08:10;100016.23;;;1.87;90.93
57024;BME280;42916;54.346;18.562;2023-03-03T20:20:11;100008.02;;;1.95;90.50
57024;BME280;42916;54.346;18.562;2023-03-03T20:25:56;99988.60;;;1.98;90.47
57024;BME280;42916;54.346;18.562;2023-03-03T20:34:48;99998.46;;;2.02;89.97
57024;BME280;42916;54.346;18.562;2023-03-03T20:40:42;99986.74;;;2.05;89.68
57024;BME280;42916;54.346;18.562;2023-03-03T20:51:25;99976.25;;;2.09;88.92
57024;BME280;42916;54.346;18.562;2023-03-03T20:58:14;99957.34;;;2.13;88.40
57024;BME280;42916;54.346;18.562;2023-03-03T21:04:42;99966.70;;;2.15;88.27
57024;BME280;42916;54.346;18.562;2023-03-03T21:07:59;99972.02;;;2.15;88.31
57024;BME280;42916;54.346;18.562;2023-03-03T21:11:08;99931.52;;;2.14;88.10
57024;BME280;42916;54.346;18.562;2023-03-03T21:13:47;99912.84;;;2.12;88.15
57024;BME280;42916;54.346;18.562;2023-03-03T21:16:33;99894.25;;;2.12;88.27
57024;BME280;42916;54.346;18.562;2023-03-03T21:19:05;99896.41;;;2.11;88.04
57024;BME280;42916;54.346;18.562;2023-03-03T21:21:50;99877.80;;;2.10;87.60
57024;BME280;42916;54.346;18.562;2023-03-03T21:27:46;99869.96;;;2.04;87.58
57024;BME280;42916;54.346;18.562;2023-03-03T21:30:30;99862.55;;;2.03;87.68
57024;BME280;42916;54.346;18.562;2023-03-03T21:33:08;99853.14;;;2.03;86.97
57024;BME280;42916;54.346;18.562;2023-03-03T21:35:58;99863.05;;;2.01;87.04
57024;BME280;42916;54.346;18.562;2023-03-03T21:38:51;99851.63;;;2.00;86.85
57024;BME280;42916;54.346;18.562;2023-03-03T21:42:25;99856.91;;;2.00;86.51
57024;BME280;42916;54.346;18.562;2023-03-03T21:45:12;99838.70;;;2.01;86.64
57024;BME280;42916;54.346;18.562;2023-03-03T21:47:53;99826.31;;;2.00;86.48
57024;BME280;42916;54.346;18.562;2023-03-03T21:50:35;99818.20;;;1.98;86.45
57024;BME280;42916;54.346;18.562;2023-03-03T21:53:17;99816.96;;;1.99;86.48
57024;BME280;42916;54.346;18.562;2023-03-03T21:55:56;99800.63;;;2.04;86.67
57024;BME280;42916;54.346;18.562;2023-03-03T21:58:33;99813.20;;;2.07;86.65
57024;BME280;42916;54.346;18.562;2023-03-03T22:01:13;99801.27;;;2.11;86.90
57024;BME280;42916;54.346;18.562;2023-03-03T22:03:59;99806.41;;;2.13;86.90
57024;BME280;42916;54.346;18.562;2023-03-03T22:07:07;99798.36;;;2.14;87.08
57024;BME280;42916;54.346;18.562;2023-03-03T22:09:47;99796.45;;;2.16;87.42
57024;BME280;42916;54.346;18.562;2023-03-03T22:12:21;99799.63;;;2.17;87.41
57024;BME280;42916;54.346;18.562;2023-03-03T22:15:18;99800.27;;;2.19;87.55
57024;BME280;42916;54.346;18.562;2023-03-03T22:17:56;99802.86;;;2.22;87.81
57024;BME280;42916;54.346;18.562;2023-03-03T22:20:35;99797.45;;;2.26;87.91
57024;BME280;42916;54.346;18.562;2023-03-03T22:23:17;99791.08;;;2.30;88.27
57024;BME280;42916;54.346;18.562;2023-03-03T22:26:12;99790.29;;;2.31;88.35
57024;BME280;42916;54.346;18.562;2023-03-03T22:28:39;99794.99;;;2.33;88.48
57024;BME280;42916;54.346;18.562;2023-03-03T22:31:15;99786.26;;;2.35;88.59
57024;BME280;42916;54.346;18.562;2023-03-03T22:34:01;99781.66;;;2.38;89.22
57024;BME280;42916;54.346;18.562;2023-03-03T22:36:31;99777.71;;;2.39;89.25
57024;BME280;42916;54.346;18.562;2023-03-03T22:42:20;99777.09;;;2.41;89.47
57024;BME280;42916;54.346;18.562;2023-03-03T22:45:17;99768.40;;;2.43;89.79
57024;BME280;42916;54.346;18.562;2023-03-03T22:47:44;99760.22;;;2.44;90.04
57024;BME280;42916;54.346;18.562;2023-03-03T22:50:14;99754.63;;;2.46;90.29
57024;BME280;42916;54.346;18.562;2023-03-03T22:53:03;99748.10;;;2.46;90.40
57024;BME280;42916;54.346;18.562;2023-03-03T22:55:38;99743.56;;;2.47;90.75
57024;BME280;42916;54.346;18.562;2023-03-03T22:58:26;99746.41;;;2.51;91.06
57024;BME280;42916;54.346;18.562;2023-03-03T23:01:12;99755.86;;;2.52;91.13
57024;BME280;42916;54.346;18.562;2023-03-03T23:03:45;99750.72;;;2.53;91.51
57024;BME280;42916;54.346;18.562;2023-03-03T23:06:16;99746.84;;;2.55;91.52
57024;BME280;42916;54.346;18.562;2023-03-03T23:15:19;99726.98;;;2.59;92.14
57024;BME280;42916;54.346;18.562;2023-03-03T23:18:09;99721.06;;;2.60;92.31
57024;BME280;42916;54.346;18.562;2023-03-03T23:20:36;99718.10;;;2.64;93.18
57024;BME280;42916;54.346;18.562;2023-03-03T23:23:32;99711.21;;;2.67;92.72
57024;BME280;42916;54.346;18.562;2023-03-03T23:26:08;99707.48;;;2.69;93.02
57024;BME280;42916;54.346;18.562;2023-03-03T23:28:54;99699.20;;;2.71;93.26
57024;BME280;42916;54.346;18.562;2023-03-03T23:31:35;99694.11;;;2.70;93.54
57024;BME280;42916;54.346;18.562;2023-03-03T23:34:02;99684.35;;;2.72;93.89
57024;BME280;42916;54.346;18.562;2023-03-03T23:36:31;99689.75;;;2.73;93.58
57024;BME280;42916;54.346;18.562;2023-03-03T23:39:26;99688.02;;;2.74;94.09
57024;BME280;42916;54.346;18.562;2023-03-03T23:41:53;99682.77;;;2.77;94.08
57024;BME280;42916;54.346;18.562;2023-03-03T23:44:20;99687.97;;;2.78;94.14
57024;BME280;42916;54.346;18.562;2023-03-03T23:47:01;99675.98;;;2.79;94.34
57024;BME280;42916;54.346;18.562;2023-03-03T23:49:31;99670.50;;;2.82;94.40
57024;BME280;42916;54.346;18.562;2023-03-03T23:52:10;99678.06;;;2.86;94.36
57024;BME280;42916;54.346;18.562;2023-03-03T23:54:50;99669.67;;;2.89;94.13
57024;BME280;42916;54.346;18.562;2023-03-03T23:57:27;99677.05;;;2.91;94.72
